createdAt,value
2024-03-08T00:00:28.189Z,99004.88
2024-03-08T00:01:29.810Z,99014.22
2024-03-08T00:02:31.434Z,99013.56
2024-03-08T00:03:33.798Z,99005.78
2024-03-08T00:04:35.340Z,99011.28
2024-03-08T00:05:39.693Z,99012.63
2024-03-08T00:06:41.764Z,99005.41
2024-03-08T00:07:44.359Z,99015.72
2024-03-08T00:08:46.072Z,98997.44
2024-03-08T00:09:47.672Z,99006.78
2024-03-08T00:10:49.331Z,98998.97
2024-03-08T00:11:51.555Z,98997.97
2024-03-08T00:12:54.646Z,98997.88
2024-03-08T00:13:56.491Z,98996.94
2024-03-08T00:14:58.225Z,98990.25
2024-03-08T00:15:59.776Z,98996.25
2024-03-08T00:17:01.391Z,99000.50
2024-03-08T00:18:03.003Z,98999.34
2024-03-08T00:19:04.628Z,99000.03
2024-03-08T00:20:09.357Z,99003.19
2024-03-08T00:21:11.446Z,99000.41
2024-03-08T00:22:13.019Z,98997.50
2024-03-08T00:23:14.575Z,98970.13
2024-03-08T00:24:16.165Z,98989.69
2024-03-08T00:25:17.803Z,98993.91
2024-03-08T00:26:19.655Z,98982.13
2024-03-08T00:27:22.268Z,98983.41
2024-03-08T00:28:26.164Z,98985.81
2024-03-08T00:29:28.716Z,98987.63
2024-03-08T00:30:30.397Z,98990.91
2024-03-08T00:31:35.113Z,98993.16
2024-03-08T00:32:38.359Z,98993.81
2024-03-08T00:33:41.051Z,98991.19
2024-03-08T00:34:42.694Z,98999.88
2024-03-08T00:35:44.340Z,98993.16
2024-03-08T00:36:46.028Z,98997.94
2024-03-08T00:37:50.367Z,98999.41
2024-03-08T00:38:51.966Z,99002.03
2024-03-08T00:39:54.216Z,98996.53
2024-03-08T00:40:57.049Z,98998.84
2024-03-08T00:41:58.649Z,98995.69
2024-03-08T00:43:00.247Z,98998.59
2024-03-08T00:44:01.839Z,98990.63
2024-03-08T00:45:04.086Z,99000.56
2024-03-08T00:46:05.827Z,98993.06
2024-03-08T00:47:07.441Z,98987.19
2024-03-08T00:48:09.529Z,98990.84
2024-03-08T00:49:11.102Z,98992.06
2024-03-08T00:50:14.142Z,98989.47
2024-03-08T00:51:18.325Z,98994.66
2024-03-08T00:52:20.386Z,98993.69
2024-03-08T00:53:22.057Z,98983.06
2024-03-08T00:54:23.599Z,98968.88
2024-03-08T00:55:25.168Z,98987.03
2024-03-08T00:56:26.752Z,98979.38
2024-03-08T00:57:29.137Z,98984.41
2024-03-08T00:58:31.748Z,98986.22
2024-03-08T00:59:36.511Z,98978.56
2024-03-08T01:00:39.971Z,98979.97
2024-03-08T01:01:45.255Z,98989.22
2024-03-08T01:02:46.888Z,98978.56
2024-03-08T01:03:49.803Z,98969.56
2024-03-08T01:04:51.518Z,98980.22
2024-03-08T01:05:53.099Z,98974.25
2024-03-08T01:06:54.656Z,98970.72
2024-03-08T01:07:56.188Z,98979.41
2024-03-08T01:08:57.818Z,98974.00
2024-03-08T01:09:59.685Z,98975.97
2024-03-08T01:11:01.315Z,98979.41
2024-03-08T01:12:02.985Z,98974.34
2024-03-08T01:13:04.808Z,98977.94
2024-03-08T01:14:06.593Z,98972.31
2024-03-08T01:15:08.603Z,98969.59
2024-03-08T01:16:12.535Z,98963.53
2024-03-08T01:17:15.502Z,98980.06
2024-03-08T01:18:17.251Z,98976.63
2024-03-08T01:19:19.005Z,98976.63
2024-03-08T01:20:20.802Z,98974.50
2024-03-08T01:21:23.464Z,98973.38
2024-03-08T01:22:25.048Z,98975.81
2024-03-08T01:23:26.823Z,98977.94
2024-03-08T01:24:28.367Z,98976.72
2024-03-08T01:25:29.964Z,98968.06
2024-03-08T01:26:31.841Z,98982.28
2024-03-08T01:27:33.609Z,98984.09
2024-03-08T01:28:35.583Z,98985.53
2024-03-08T01:29:37.214Z,98987.53
2024-03-08T01:30:39.737Z,98974.59
2024-03-08T01:31:41.305Z,98985.72
2024-03-08T01:32:43.768Z,98985.53
2024-03-08T01:33:45.438Z,98979.84
2024-03-08T01:34:47.087Z,98987.38
2024-03-08T01:35:49.098Z,98989.41
2024-03-08T01:36:50.716Z,98982.16
2024-03-08T01:37:52.256Z,98989.22
2024-03-08T01:38:54.014Z,98977.44
2024-03-08T01:39:55.580Z,98992.28
2024-03-08T01:40:57.450Z,98984.44
2024-03-08T01:41:59.570Z,98992.63
2024-03-08T01:43:36.959Z,98999.56
2024-03-08T01:44:38.531Z,99002.66
2024-03-08T01:45:40.048Z,98994.63
2024-03-08T01:46:41.622Z,99001.69
2024-03-08T01:47:43.297Z,98988.91
2024-03-08T01:48:45.609Z,98995.78
2024-03-08T01:49:47.369Z,98992.47
2024-03-08T01:50:49.070Z,98993.00
2024-03-08T01:51:50.986Z,98989.22
2024-03-08T01:52:53.485Z,99004.31
2024-03-08T01:53:56.996Z,98986.13
2024-03-08T01:55:02.060Z,98987.75
2024-03-08T01:56:04.095Z,98987.59
2024-03-08T01:57:05.920Z,98993.66
2024-03-08T01:58:08.182Z,98978.66
2024-03-08T01:59:10.176Z,98997.63
2024-03-08T02:00:12.978Z,98996.44
2024-03-08T02:01:17.940Z,98994.66
2024-03-08T02:02:20.999Z,98991.09
2024-03-08T02:03:23.552Z,98995.00
2024-03-08T02:04:25.568Z,98994.00
2024-03-08T02:05:27.391Z,98994.53
2024-03-08T02:06:28.964Z,98989.81
2024-03-08T02:07:30.483Z,98987.03
2024-03-08T02:08:32.770Z,98990.78
2024-03-08T02:09:34.419Z,98975.47
2024-03-08T02:10:36.017Z,98990.16
2024-03-08T02:11:38.296Z,98988.50
2024-03-08T02:12:40.355Z,99000.28
2024-03-08T02:13:42.385Z,98990.78
2024-03-08T02:14:45.232Z,98996.69
2024-03-08T02:16:01.451Z,98995.53
2024-03-08T02:17:03.608Z,98994.06
2024-03-08T02:18:05.806Z,98995.03
2024-03-08T02:19:10.819Z,98991.94
2024-03-08T02:20:14.639Z,98993.41
2024-03-08T02:21:22.069Z,98995.75
2024-03-08T02:22:23.755Z,98989.69
2024-03-08T02:23:26.101Z,98991.03
2024-03-08T02:24:27.722Z,98992.50
2024-03-08T02:25:29.628Z,98990.84
2024-03-08T02:26:31.236Z,98980.06
2024-03-08T02:27:32.887Z,98992.31
2024-03-08T02:28:35.200Z,98994.41
2024-03-08T02:29:37.855Z,98988.72
2024-03-08T02:30:39.945Z,98992.59
2024-03-08T02:31:41.469Z,98987.91
2024-03-08T02:32:43.108Z,98990.69
2024-03-08T02:33:44.880Z,98991.66
2024-03-08T02:34:46.503Z,98991.94
2024-03-08T02:35:49.320Z,98988.06
2024-03-08T02:36:50.878Z,98979.72
2024-03-08T02:37:52.429Z,98964.09
2024-03-08T02:38:54.017Z,98986.94
2024-03-08T02:39:56.407Z,98982.69
2024-03-08T02:40:58.016Z,98991.66
2024-03-08T02:41:59.620Z,98995.75
2024-03-08T02:43:01.244Z,98997.66
2024-03-08T02:44:02.843Z,98996.19
2024-03-08T02:45:06.835Z,98986.53
2024-03-08T02:46:08.474Z,98996.56
2024-03-08T02:47:10.089Z,98998.06
2024-03-08T02:48:12.391Z,99000.69
2024-03-08T02:49:13.994Z,98996.91
2024-03-08T02:50:17.429Z,99000.00
2024-03-08T02:51:19.198Z,98999.06
2024-03-08T02:52:22.464Z,98997.06
2024-03-08T02:53:25.821Z,99003.25
2024-03-08T02:54:27.398Z,98993.59
2024-03-08T02:55:29.044Z,98995.03
2024-03-08T02:56:31.407Z,98998.47
2024-03-08T02:57:33.266Z,98988.50
2024-03-08T02:58:34.813Z,98981.66
2024-03-08T02:59:36.421Z,98991.75
2024-03-08T03:00:40.067Z,98988.13
2024-03-08T03:01:42.427Z,98986.34
2024-03-08T03:02:44.071Z,98992.56
2024-03-08T03:03:45.661Z,98993.56
2024-03-08T03:04:47.157Z,98987.03
2024-03-08T03:05:49.598Z,98990.13
2024-03-08T03:06:51.992Z,98990.63
2024-03-08T03:07:53.582Z,98987.53
2024-03-08T03:08:55.179Z,98994.72
2024-03-08T03:09:56.943Z,98991.44
2024-03-08T03:10:58.570Z,98997.31
2024-03-08T03:12:00.690Z,98994.06
2024-03-08T03:13:02.252Z,98990.78
2024-03-08T03:14:03.786Z,98989.28
2024-03-08T03:15:06.234Z,99002.88
2024-03-08T03:16:08.464Z,98991.56
2024-03-08T03:17:11.183Z,98998.59
2024-03-08T03:18:13.049Z,99001.31
2024-03-08T03:19:16.206Z,98995.91
2024-03-08T03:20:27.176Z,99001.63
2024-03-08T03:21:32.859Z,99005.94
2024-03-08T03:22:35.950Z,98999.88
2024-03-08T03:23:38.320Z,99001.50
2024-03-08T03:24:41.191Z,98993.00
2024-03-08T03:25:42.931Z,99000.69
2024-03-08T03:26:44.949Z,99001.84
2024-03-08T03:27:47.514Z,99002.50
2024-03-08T03:28:49.397Z,99007.91
2024-03-08T03:29:52.014Z,99008.72
2024-03-08T03:30:54.167Z,99003.81
2024-03-08T03:31:55.701Z,99007.44
2024-03-08T03:33:00.116Z,99008.72
2024-03-08T03:34:05.107Z,99007.44
2024-03-08T03:35:07.041Z,99013.81
2024-03-08T03:36:11.178Z,99014.31
2024-03-08T03:37:13.723Z,99014.63
2024-03-08T03:38:15.536Z,98995.81
2024-03-08T03:39:17.865Z,99006.13
2024-03-08T03:40:20.664Z,99008.91
2024-03-08T03:41:22.234Z,99011.34
2024-03-08T03:42:25.077Z,99015.94
2024-03-08T03:43:27.088Z,99006.13
2024-03-08T03:44:29.594Z,99014.63
2024-03-08T03:45:36.450Z,99015.97
2024-03-08T03:46:38.872Z,99020.19
2024-03-08T03:47:40.454Z,99014.63
2024-03-08T03:48:43.536Z,99017.06
2024-03-08T03:49:46.174Z,99010.25
2024-03-08T03:50:47.913Z,99018.94
2024-03-08T03:51:49.478Z,99017.94
2024-03-08T03:52:51.020Z,99016.31
2024-03-08T03:53:53.882Z,99016.16
2024-03-08T03:54:55.507Z,99018.47
2024-03-08T03:55:57.805Z,99013.88
2024-03-08T03:56:59.608Z,99017.56
2024-03-08T03:58:02.381Z,99009.72
2024-03-08T03:59:04.018Z,99019.84
2024-03-08T04:00:07.469Z,99017.56
2024-03-08T04:01:10.829Z,99024.13
2024-03-08T04:02:12.373Z,99015.31
2024-03-08T04:03:14.017Z,99015.03
2024-03-08T04:04:15.599Z,99018.47
2024-03-08T04:05:17.139Z,99018.16
2024-03-08T04:06:18.733Z,99020.31
2024-03-08T04:07:20.301Z,99020.66
2024-03-08T04:08:22.008Z,99014.78
2024-03-08T04:09:23.547Z,99017.38
2024-03-08T04:10:25.375Z,99021.81
2024-03-08T04:11:27.066Z,99017.22
2024-03-08T04:12:30.328Z,99015.91
2024-03-08T04:13:31.928Z,99022.13
2024-03-08T04:14:34.168Z,99019.03
2024-03-08T04:15:35.755Z,99016.56
2024-03-08T04:16:38.332Z,99031.00
2024-03-08T04:17:40.036Z,99014.69
2024-03-08T04:18:41.916Z,99020.72
2024-03-08T04:19:43.709Z,99024.81
2024-03-08T04:20:45.326Z,99029.56
2024-03-08T04:21:46.922Z,99004.41
2024-03-08T04:22:50.577Z,99022.03
2024-03-08T04:23:52.838Z,99032.03
2024-03-08T04:24:54.415Z,99022.69
2024-03-08T04:25:55.966Z,99027.31
2024-03-08T04:26:57.867Z,99032.34
2024-03-08T04:27:59.517Z,99031.53
2024-03-08T04:29:01.066Z,99034.81
2024-03-08T04:30:08.867Z,99027.00
2024-03-08T04:31:11.791Z,99030.91
2024-03-08T04:32:14.661Z,99031.41
2024-03-08T04:33:17.697Z,99029.94
2024-03-08T04:34:19.367Z,99014.28
2024-03-08T04:35:21.942Z,99015.91
2024-03-08T04:36:24.480Z,99034.69
2024-03-08T04:37:26.456Z,99029.28
2024-03-08T04:38:28.191Z,99026.19
2024-03-08T04:39:30.071Z,99032.56
2024-03-08T04:40:32.434Z,99032.09
2024-03-08T04:41:35.322Z,99034.91
2024-03-08T04:42:40.193Z,99035.53
2024-03-08T04:43:41.746Z,99035.34
2024-03-08T04:44:43.281Z,99037.50
2024-03-08T04:45:45.145Z,99030.50
2024-03-08T04:46:47.998Z,99035.56
2024-03-08T04:47:49.779Z,99031.47
2024-03-08T04:48:51.620Z,99022.78
2024-03-08T04:49:54.323Z,99039.41
2024-03-08T04:50:56.992Z,99041.06
2024-03-08T04:51:58.635Z,99041.91
2024-03-08T04:53:00.166Z,99040.09
2024-03-08T04:54:01.804Z,99034.53
2024-03-08T04:55:06.242Z,99033.25
2024-03-08T04:56:08.375Z,99042.38
2024-03-08T04:57:10.238Z,99013.69
2024-03-08T04:58:11.803Z,99048.28
2024-03-08T04:59:13.454Z,99043.38
2024-03-08T05:00:16.252Z,99054.66
2024-03-08T05:01:18.301Z,99048.81
2024-03-08T05:02:19.829Z,99038.00
2024-03-08T05:03:22.425Z,99048.97
2024-03-08T05:04:23.935Z,99033.44
2024-03-08T05:05:27.285Z,99048.28
2024-03-08T05:06:30.065Z,99052.53
2024-03-08T05:07:31.663Z,99033.25
2024-03-08T05:08:34.234Z,99041.41
2024-03-08T05:09:37.385Z,99049.91
2024-03-08T05:10:39.016Z,99046.31
2024-03-08T05:11:48.127Z,99055.31
2024-03-08T05:12:50.498Z,99053.00
2024-03-08T05:13:52.046Z,99048.44
2024-03-08T05:14:53.608Z,99052.25
2024-03-08T05:15:55.336Z,99046.53
2024-03-08T05:16:57.128Z,99053.84
2024-03-08T05:17:59.263Z,99052.41
2024-03-08T05:19:01.048Z,99057.28
2024-03-08T05:20:03.067Z,99065.94
2024-03-08T05:21:05.263Z,99061.06
2024-03-08T05:22:06.816Z,99061.91
2024-03-08T05:23:09.434Z,99059.91
2024-03-08T05:24:11.467Z,99059.59
2024-03-08T05:25:13.443Z,99072.53
2024-03-08T05:27:17.533Z,99076.50
2024-03-08T05:28:19.081Z,99077.31
2024-03-08T05:29:20.685Z,99077.78
2024-03-08T05:30:23.022Z,99080.06
2024-03-08T05:31:24.676Z,99084.31
2024-03-08T05:32:27.280Z,99077.94
2024-03-08T05:33:29.704Z,99084.81
2024-03-08T05:34:31.494Z,99088.53
2024-03-08T05:35:33.740Z,99089.34
2024-03-08T05:36:36.067Z,99084.44
2024-03-08T05:37:37.874Z,99089.50
2024-03-08T05:38:39.459Z,99092.78
2024-03-08T05:39:42.141Z,99089.16
2024-03-08T05:40:44.514Z,99097.81
2024-03-08T05:41:47.011Z,99098.34
2024-03-08T05:42:48.594Z,99098.50
2024-03-08T05:43:50.164Z,99100.00
2024-03-08T05:44:51.733Z,99095.41
2024-03-08T05:45:53.349Z,99100.47
2024-03-08T05:46:54.916Z,99097.03
2024-03-08T05:47:56.680Z,99099.66
2024-03-08T05:48:59.979Z,99106.50
2024-03-08T05:50:01.608Z,99102.72
2024-03-08T05:51:03.347Z,99084.59
2024-03-08T05:52:05.796Z,99103.06
2024-03-08T05:53:07.755Z,99100.28
2024-03-08T05:54:12.120Z,99107.81
2024-03-08T05:55:15.564Z,99095.56
2024-03-08T05:56:17.438Z,99111.13
2024-03-08T05:57:19.321Z,99108.50
2024-03-08T05:58:20.899Z,99112.38
2024-03-08T05:59:24.560Z,99104.69
2024-03-08T06:00:27.406Z,99099.63
2024-03-08T06:01:29.714Z,99101.91
2024-03-08T06:02:31.270Z,99096.72
2024-03-08T06:03:32.839Z,99100.94
2024-03-08T06:04:34.395Z,99103.72
2024-03-08T06:05:36.015Z,99112.22
2024-03-08T06:06:38.955Z,99110.38
2024-03-08T06:07:41.765Z,99109.75
2024-03-08T06:08:44.700Z,99110.06
2024-03-08T06:09:49.311Z,99106.66
2024-03-08T06:10:53.809Z,99106.50
2024-03-08T06:11:56.211Z,99116.97
2024-03-08T06:12:57.907Z,99116.97
2024-03-08T06:14:01.393Z,99108.66
2024-03-08T06:15:03.468Z,99118.28
2024-03-08T06:16:05.801Z,99121.72
2024-03-08T06:17:08.358Z,99118.97
2024-03-08T06:18:13.066Z,99123.38
2024-03-08T06:19:14.859Z,99119.78
2024-03-08T06:20:16.651Z,99118.66
2024-03-08T06:21:18.188Z,99117.16
2024-03-08T06:22:21.004Z,99116.00
2024-03-08T06:23:22.960Z,99124.81
2024-03-08T06:24:24.637Z,99127.78
2024-03-08T06:25:26.226Z,99125.31
2024-03-08T06:26:31.559Z,99123.06
2024-03-08T06:27:35.115Z,99125.69
2024-03-08T06:28:36.813Z,99130.91
2024-03-08T06:29:38.463Z,99131.56
2024-03-08T06:30:40.049Z,99121.59
2024-03-08T06:31:41.702Z,99136.03
2024-03-08T06:32:44.548Z,99137.97
2024-03-08T06:33:46.764Z,99132.25
2024-03-08T06:34:48.375Z,99133.72
2024-03-08T06:35:49.914Z,99122.28
2024-03-08T06:36:53.624Z,99129.47
2024-03-08T06:37:55.420Z,99135.66
2024-03-08T06:38:58.195Z,99132.06
2024-03-08T06:39:59.919Z,99134.38
2024-03-08T06:41:04.205Z,99133.41
2024-03-08T06:42:06.137Z,99135.66
2024-03-08T06:43:08.061Z,99135.66
2024-03-08T06:44:10.239Z,99129.97
2024-03-08T06:45:13.621Z,99136.47
2024-03-08T06:46:21.910Z,99143.03
2024-03-08T06:47:26.875Z,99138.28
2024-03-08T06:48:28.608Z,99146.63
2024-03-08T06:49:30.673Z,99145.00
2024-03-08T06:50:33.287Z,99139.91
2024-03-08T06:51:34.877Z,99143.16
2024-03-08T06:52:36.416Z,99146.59
2024-03-08T06:53:39.946Z,99147.59
2024-03-08T06:54:41.971Z,99144.47
2024-03-08T06:55:43.688Z,99145.44
2024-03-08T06:56:45.306Z,99148.56
2024-03-08T06:57:46.915Z,99149.53
2024-03-08T06:58:49.054Z,99151.38
2024-03-08T06:59:50.706Z,99148.59
2024-03-08T07:00:53.391Z,99148.75
2024-03-08T07:01:55.454Z,99159.19
2024-03-08T07:03:01.963Z,99159.03
2024-03-08T07:04:06.415Z,99157.41
2024-03-08T07:05:11.607Z,99159.84
2024-03-08T07:06:13.758Z,99158.22
2024-03-08T07:07:16.168Z,99154.63
2024-03-08T07:08:17.878Z,99156.41
2024-03-08T07:09:19.562Z,99154.91
2024-03-08T07:10:27.177Z,99156.91
2024-03-08T07:11:28.844Z,99156.59
2024-03-08T07:12:30.483Z,99154.94
2024-03-08T07:13:32.736Z,99157.56
2024-03-08T07:14:34.356Z,99153.16
2024-03-08T07:15:36.687Z,99161.16
2024-03-08T07:16:38.224Z,99160.50
2024-03-08T07:17:40.609Z,99163.41
2024-03-08T07:18:44.730Z,99155.94
2024-03-08T07:19:46.541Z,99161.31
2024-03-08T07:20:48.181Z,99152.97
2024-03-08T07:21:49.754Z,99158.53
2024-03-08T07:22:54.126Z,99164.75
2024-03-08T07:24:01.580Z,99157.53
2024-03-08T07:25:21.007Z,99164.41
2024-03-08T07:26:22.674Z,99169.03
2024-03-08T07:27:24.461Z,99157.88
2024-03-08T07:28:26.030Z,99164.25
2024-03-08T07:29:27.608Z,99168.97
2024-03-08T07:30:44.769Z,99141.34
2024-03-08T07:31:52.199Z,99165.72
2024-03-08T07:32:53.879Z,99155.41
2024-03-08T07:33:55.536Z,99157.19
2024-03-08T07:34:57.366Z,99168.66
2024-03-08T07:35:59.040Z,99163.41
2024-03-08T07:37:00.738Z,99168.44
2024-03-08T07:38:03.663Z,99163.22
2024-03-08T07:39:10.450Z,99168.28
2024-03-08T07:40:14.915Z,99176.16
2024-03-08T07:41:17.525Z,99165.88
2024-03-08T07:42:19.108Z,99156.53
2024-03-08T07:43:20.631Z,99160.78
2024-03-08T07:44:22.245Z,99167.97
2024-03-08T07:45:23.858Z,99160.97
2024-03-08T07:46:25.412Z,99172.72
2024-03-08T07:47:27.611Z,99170.75
2024-03-08T07:48:29.530Z,99172.56
2024-03-08T07:49:31.325Z,99170.09
2024-03-08T07:50:34.384Z,99168.28
2024-03-08T07:51:36.130Z,99169.28
2024-03-08T07:52:38.058Z,99166.97
2024-03-08T07:53:39.693Z,99169.28
2024-03-08T07:54:41.312Z,99176.63
2024-03-08T07:55:44.004Z,99171.19
2024-03-08T07:56:45.869Z,99167.31
2024-03-08T07:57:48.789Z,99167.59
2024-03-08T07:58:50.380Z,99176.47
2024-03-08T07:59:51.928Z,99181.22
2024-03-08T08:00:53.498Z,99166.94
2024-03-08T08:01:55.375Z,99170.03
2024-03-08T08:02:57.090Z,99171.72
2024-03-08T08:03:58.682Z,99175.50
2024-03-08T08:05:00.522Z,99148.00
2024-03-08T08:06:02.609Z,99165.00
2024-03-08T08:07:04.402Z,99168.88
2024-03-08T08:08:07.862Z,99168.88
2024-03-08T08:09:29.189Z,99178.44
2024-03-08T08:10:30.796Z,99171.22
2024-03-08T08:11:33.709Z,99171.22
2024-03-08T08:12:35.275Z,99174.94
2024-03-08T08:13:37.660Z,99181.69
2024-03-08T08:14:42.492Z,99180.84
2024-03-08T08:15:44.076Z,99175.09
2024-03-08T08:16:46.367Z,99182.63
2024-03-08T08:17:52.981Z,99182.97
2024-03-08T08:18:55.664Z,99179.03
2024-03-08T08:19:57.261Z,99177.94
2024-03-08T08:20:58.762Z,99177.56
2024-03-08T08:22:00.338Z,99177.72
2024-03-08T08:23:02.123Z,99179.25
2024-03-08T08:24:07.474Z,99198.69
2024-03-08T08:25:09.406Z,99177.28
2024-03-08T08:26:12.399Z,99185.31
2024-03-08T08:27:15.484Z,99198.84
2024-03-08T08:28:20.151Z,99182.63
2024-03-08T08:29:21.753Z,99186.06
2024-03-08T08:30:23.631Z,99184.28
2024-03-08T08:31:25.161Z,99190.16
2024-03-08T08:32:27.677Z,99187.88
2024-03-08T08:33:29.348Z,99195.69
2024-03-08T08:34:31.379Z,99187.00
2024-03-08T08:35:34.031Z,99185.03
2024-03-08T08:36:36.343Z,99182.69
2024-03-08T08:37:40.150Z,99186.91
2024-03-08T08:38:45.189Z,99187.25
2024-03-08T08:39:50.780Z,99193.91
2024-03-08T08:40:53.683Z,99187.03
2024-03-08T08:41:56.480Z,99185.41
2024-03-08T08:43:01.169Z,99190.63
2024-03-08T08:44:09.139Z,99186.03
2024-03-08T08:45:23.188Z,99201.28
2024-03-08T08:46:27.344Z,99194.06
2024-03-08T08:47:29.444Z,99195.66
2024-03-08T08:48:31.906Z,99191.59
2024-03-08T08:49:33.522Z,99191.88
2024-03-08T08:50:35.487Z,99185.66
2024-03-08T08:51:37.834Z,99182.03
2024-03-08T08:52:40.924Z,99189.22
2024-03-08T08:53:48.772Z,99195.09
2024-03-08T08:54:51.033Z,99185.78
2024-03-08T08:55:54.412Z,99181.13
2024-03-08T08:56:56.112Z,99186.66
2024-03-08T08:57:58.104Z,99187.28
2024-03-08T08:58:59.780Z,99190.56
2024-03-08T09:00:01.648Z,99188.28
2024-03-08T09:01:03.346Z,99184.84
2024-03-08T09:02:05.108Z,99188.28
2024-03-08T09:03:08.151Z,99189.75
2024-03-08T09:04:09.737Z,99188.25
2024-03-08T09:05:12.863Z,99191.94
2024-03-08T09:06:14.844Z,99185.88
2024-03-08T09:07:17.475Z,99189.81
2024-03-08T09:08:19.231Z,99177.50
2024-03-08T09:09:20.933Z,99184.59
2024-03-08T09:10:22.831Z,99186.31
2024-03-08T09:11:26.422Z,99180.25
2024-03-08T09:12:28.133Z,99189.78
2024-03-08T09:13:31.942Z,99185.13
2024-03-08T09:14:35.725Z,99191.75
2024-03-08T09:15:37.406Z,99190.59
2024-03-08T09:16:39.114Z,99187.78
2024-03-08T09:17:41.855Z,99183.53
2024-03-08T09:18:44.157Z,99195.59
2024-03-08T09:19:46.057Z,99189.16
2024-03-08T09:20:48.243Z,99187.31
2024-03-08T09:21:49.806Z,99189.84
2024-03-08T09:22:51.450Z,99189.75
2024-03-08T09:23:53.033Z,99188.09
2024-03-08T09:24:54.536Z,99191.84
2024-03-08T09:25:56.199Z,99186.06
2024-03-08T09:26:59.772Z,99178.81
2024-03-08T09:28:01.350Z,99195.09
2024-03-08T09:29:02.935Z,99187.47
2024-03-08T09:30:05.415Z,99191.75
2024-03-08T09:31:07.001Z,99194.47
2024-03-08T09:32:08.974Z,99196.72
2024-03-08T09:33:10.951Z,99187.47
2024-03-08T09:34:17.413Z,99192.31
2024-03-08T09:35:22.070Z,99193.19
2024-03-08T09:36:23.679Z,99196.97
2024-03-08T09:37:25.228Z,99193.81
2024-03-08T09:38:26.805Z,99182.50
2024-03-08T09:39:30.045Z,99189.94
2024-03-08T09:40:33.570Z,99200.09
2024-03-08T09:41:35.257Z,99191.69
2024-03-08T09:42:39.668Z,99194.91
2024-03-08T09:43:41.557Z,99190.13
2024-03-08T09:44:47.247Z,99195.31
2024-03-08T09:45:50.815Z,99187.50
2024-03-08T09:46:54.221Z,99193.28
2024-03-08T09:47:56.096Z,99197.09
2024-03-08T09:48:58.092Z,99190.81
2024-03-08T09:49:59.789Z,99189.94
2024-03-08T09:51:01.945Z,99197.81
2024-03-08T09:52:06.117Z,99198.88
2024-03-08T09:53:11.246Z,99200.53
2024-03-08T09:54:23.201Z,99193.25
2024-03-08T09:55:27.104Z,99197.41
2024-03-08T09:56:29.023Z,99195.22
2024-03-08T09:57:30.689Z,99193.97
2024-03-08T09:58:43.634Z,99188.28
2024-03-08T09:59:48.208Z,99198.03
2024-03-08T10:00:49.786Z,99196.88
2024-03-08T10:01:53.198Z,99195.16
2024-03-08T10:02:55.261Z,99193.91
2024-03-08T10:03:58.526Z,99187.97
2024-03-08T10:05:00.127Z,99191.50
2024-03-08T10:06:01.835Z,99192.44
2024-03-08T10:07:03.491Z,99184.53
2024-03-08T10:08:07.799Z,99194.25
2024-03-08T10:09:11.600Z,99184.91
2024-03-08T10:10:13.600Z,99178.50
2024-03-08T10:11:15.337Z,99187.66
2024-03-08T10:12:18.296Z,99187.53
2024-03-08T10:13:21.034Z,99186.72
2024-03-08T10:14:22.848Z,99166.63
2024-03-08T10:15:31.021Z,99193.63
2024-03-08T10:16:32.677Z,99184.28
2024-03-08T10:17:36.375Z,99183.81
2024-03-08T10:18:38.198Z,99181.16
2024-03-08T10:19:40.327Z,99189.06
2024-03-08T10:20:42.228Z,99181.47
2024-03-08T10:21:55.066Z,99188.34
2024-03-08T10:23:03.094Z,99185.63
2024-03-08T10:24:11.996Z,99179.66
2024-03-08T10:25:14.653Z,99184.78
2024-03-08T10:26:19.158Z,99181.78
2024-03-08T10:27:20.733Z,99186.72
2024-03-08T10:28:23.665Z,99185.53
2024-03-08T10:29:25.457Z,99190.47
2024-03-08T10:30:26.999Z,99179.19
2024-03-08T10:31:28.700Z,99171.13
2024-03-08T10:32:30.265Z,99176.88
2024-03-08T10:33:31.879Z,99179.34
2024-03-08T10:34:33.423Z,99183.03
2024-03-08T10:35:35.365Z,99181.03
2024-03-08T10:36:39.106Z,99181.66
2024-03-08T10:37:48.822Z,99181.88
2024-03-08T10:38:54.582Z,99181.69
2024-03-08T10:40:12.254Z,99182.56
2024-03-08T10:41:14.821Z,99184.78
2024-03-08T10:42:20.495Z,99187.84
2024-03-08T10:43:28.546Z,99186.03
2024-03-08T10:44:30.505Z,99187.28
2024-03-08T10:45:39.235Z,99182.03
2024-03-08T10:46:49.971Z,99177.19
2024-03-08T10:48:00.685Z,99183.28
2024-03-08T10:49:09.052Z,99166.63
2024-03-08T10:50:23.448Z,99173.34
2024-03-08T10:51:26.881Z,99177.56
2024-03-08T10:52:28.609Z,99181.19
2024-03-08T10:53:30.709Z,99176.28
2024-03-08T10:54:33.672Z,99173.63
2024-03-08T10:55:40.641Z,99175.72
2024-03-08T10:56:42.297Z,99175.31
2024-03-08T10:57:44.283Z,99180.44
2024-03-08T10:58:47.261Z,99172.53
2024-03-08T10:59:51.163Z,99180.25
2024-03-08T11:00:54.946Z,99170.50
2024-03-08T11:01:56.743Z,99168.69
2024-03-08T11:02:58.408Z,99155.88
2024-03-08T11:03:59.960Z,99168.28
2024-03-08T11:05:05.016Z,99161.53
2024-03-08T11:06:10.605Z,99169.28
2024-03-08T11:07:18.432Z,99158.16
2024-03-08T11:08:20.376Z,99162.22
2024-03-08T11:09:36.693Z,99158.16
2024-03-08T11:10:57.148Z,99136.59
2024-03-08T11:12:21.881Z,99165.44
2024-03-08T11:13:46.893Z,99159.34
2024-03-08T11:14:53.203Z,99151.81
2024-03-08T11:15:55.209Z,99163.19
2024-03-08T11:16:56.865Z,99155.28
2024-03-08T11:18:01.484Z,99148.00
2024-03-08T11:19:27.154Z,99161.03
2024-03-08T11:20:29.122Z,99156.97
2024-03-08T11:21:32.570Z,99157.34
2024-03-08T11:22:35.179Z,99153.44
2024-03-08T11:23:36.862Z,99164.19
2024-03-08T11:24:41.322Z,99161.38
2024-03-08T11:25:45.539Z,99137.38
2024-03-08T11:26:47.874Z,99161.78
2024-03-08T11:28:07.025Z,99159.63
2024-03-08T11:29:36.373Z,99161.53
2024-03-08T11:30:39.698Z,99161.94
2024-03-08T11:31:42.273Z,99157.25
2024-03-08T11:32:49.922Z,99167.44
2024-03-08T11:33:53.227Z,99165.03
2024-03-08T11:34:55.079Z,99152.91
2024-03-08T11:36:26.969Z,99158.47
2024-03-08T11:37:31.395Z,99146.09
2024-03-08T11:38:34.445Z,99153.44
2024-03-08T11:39:38.249Z,99152.44
2024-03-08T11:40:41.154Z,99145.34
2024-03-08T11:41:46.474Z,99144.94
2024-03-08T11:42:49.632Z,99140.47
2024-03-08T11:44:06.248Z,99144.97
2024-03-08T11:45:12.539Z,99144.56
2024-03-08T11:46:19.023Z,99145.97
2024-03-08T11:47:21.880Z,99131.97
2024-03-08T11:48:24.379Z,99131.56
2024-03-08T11:49:26.592Z,99131.34
2024-03-08T11:50:28.647Z,99130.75
2024-03-08T11:51:31.279Z,99127.47
2024-03-08T11:52:32.877Z,99135.56
2024-03-08T11:53:34.564Z,99133.97
2024-03-08T11:54:37.304Z,99132.16
2024-03-08T11:55:39.192Z,99127.06
2024-03-08T11:56:42.760Z,99129.69
2024-03-08T11:57:44.904Z,99124.63
2024-03-08T11:58:55.557Z,99126.03
2024-03-08T11:59:58.273Z,99129.69
2024-03-08T12:01:07.115Z,99133.94
2024-03-08T12:02:12.208Z,99124.22
2024-03-08T12:03:14.075Z,99119.94
2024-03-08T12:04:15.737Z,99127.44
2024-03-08T12:05:17.659Z,99123.38
2024-03-08T12:06:19.395Z,99120.94
2024-03-08T12:07:21.103Z,99129.31
2024-03-08T12:08:22.648Z,99131.53
2024-03-08T12:09:24.259Z,99123.81
2024-03-08T12:10:26.298Z,99130.53
2024-03-08T12:11:29.927Z,99125.66
2024-03-08T12:12:33.823Z,99118.13
2024-03-08T12:13:36.037Z,99117.72
2024-03-08T12:14:38.252Z,99124.22
2024-03-08T12:15:40.675Z,99115.72
2024-03-08T12:16:43.841Z,99111.22
2024-03-08T12:17:49.316Z,99118.31
2024-03-08T12:18:53.182Z,99121.38
2024-03-08T12:19:55.841Z,99122.38
2024-03-08T12:21:11.807Z,99119.13
2024-03-08T12:22:16.579Z,99112.22